sensor_id;sensor_type;location;lat;lon;timestamp;pressure;altitude;pressure_sealevel;temperature;humidity
39075;BME280;24826;52.070;20.970;2023-03-04T00:00:49;61480.19;;;-147.04;98.18
39075;BME280;24826;52.070;20.970;2023-03-04T00:03:34;61517.97;;;-147.04;98.40
39075;BME280;24826;52.070;20.970;2023-03-04T00:06:20;61500.06;;;-147.04;98.10
39075;BME280;24826;52.070;20.970;2023-03-04T00:09:04;61500.06;;;-147.04;97.27
39075;BME280;24826;52.070;20.970;2023-03-04T00:11:49;61484.16;;;-147.04;97.99
39075;BME280;24826;52.070;20.970;2023-03-04T00:14:34;61480.19;;;-147.04;98.43
39075;BME280;24826;52.070;20.970;2023-03-04T00:17:18;61492.13;;;-147.04;97.97
39075;BME280;24826;52.070;20.970;2023-03-04T00:20:03;61496.09;;;-147.04;98.29
39075;BME280;24826;52.070;20.970;2023-03-04T00:22:47;61500.06;;;-147.04;98.27
39075;BME280;24826;52.070;20.970;2023-03-04T00:25:32;61496.09;;;-147.04;97.34
39075;BME280;24826;52.070;20.970;2023-03-04T00:28:16;61492.13;;;-147.04;97.40
39075;BME280;24826;52.070;20.970;2023-03-04T00:31:01;61460.31;;;-147.04;98.02
39075;BME280;24826;52.070;20.970;2023-03-04T00:33:45;61484.16;;;-147.04;97.71
39075;BME280;24826;52.070;20.970;2023-03-04T00:36:30;61514.00;;;-147.04;97.12
39075;BME280;24826;52.070;20.970;2023-03-04T00:39:14;61490.13;;;-147.04;97.73
39075;BME280;24826;52.070;20.970;2023-03-04T00:41:59;61494.09;;;-147.04;97.69
39075;BME280;24826;52.070;20.970;2023-03-04T00:44:43;61486.16;;;-147.04;97.77
39075;BME280;24826;52.070;20.970;2023-03-04T00:47:27;61452.34;;;-147.04;96.75
39075;BME280;24826;52.070;20.970;2023-03-04T00:50:12;61508.03;;;-147.04;97.18
39075;BME280;24826;52.070;20.970;2023-03-04T00:52:57;61498.09;;;-147.04;97.01
39075;BME280;24826;52.070;20.970;2023-03-04T00:55:41;61496.09;;;-147.04;97.87
39075;BME280;24826;52.070;20.970;2023-03-04T00:58:26;61488.13;;;-147.04;97.46
39075;BME280;24826;52.070;20.970;2023-03-04T01:01:10;61450.34;;;-147.04;97.11
39075;BME280;24826;52.070;20.970;2023-03-04T01:03:55;61496.09;;;-147.04;96.79
39075;BME280;24826;52.070;20.970;2023-03-04T01:06:39;61472.22;;;-147.04;97.07
39075;BME280;24826;52.070;20.970;2023-03-04T01:09:24;61468.25;;;-147.04;97.16
39075;BME280;24826;52.070;20.970;2023-03-04T01:12:09;61464.28;;;-147.04;97.31
39075;BME280;24826;52.070;20.970;2023-03-04T01:14:53;61480.19;;;-147.04;97.02
39075;BME280;24826;52.070;20.970;2023-03-04T01:17:38;61476.22;;;-147.04;97.14
39075;BME280;24826;52.070;20.970;2023-03-04T01:20:22;61488.13;;;-147.04;97.96
39075;BME280;24826;52.070;20.970;2023-03-04T01:23:07;61508.03;;;-147.04;98.18
39075;BME280;24826;52.070;20.970;2023-03-04T01:25:52;61492.13;;;-147.04;98.25
39075;BME280;24826;52.070;20.970;2023-03-04T01:28:36;61519.94;;;-147.04;97.20
39075;BME280;24826;52.070;20.970;2023-03-04T01:31:20;61472.22;;;-147.04;98.00
39075;BME280;24826;52.070;20.970;2023-03-04T01:34:05;61480.19;;;-147.04;97.84
39075;BME280;24826;52.070;20.970;2023-03-04T01:36:49;61458.31;;;-147.04;97.17
39075;BME280;24826;52.070;20.970;2023-03-04T01:39:34;61490.13;;;-147.04;96.44
39075;BME280;24826;52.070;20.970;2023-03-04T01:42:20;61492.13;;;-147.04;96.50
39075;BME280;24826;52.070;20.970;2023-03-04T01:45:06;61488.13;;;-147.04;95.94
39075;BME280;24826;52.070;20.970;2023-03-04T01:47:51;61488.13;;;-147.04;96.09
39075;BME280;24826;52.070;20.970;2023-03-04T01:50:35;61484.16;;;-147.04;96.49
39075;BME280;24826;52.070;20.970;2023-03-04T01:53:22;61452.34;;;-147.04;96.62
39075;BME280;24826;52.070;20.970;2023-03-04T01:56:21;61472.22;;;-147.04;97.11
39075;BME280;24826;52.070;20.970;2023-03-04T01:59:21;61488.13;;;-147.04;97.83
39075;BME280;24826;52.070;20.970;2023-03-04T02:02:05;61476.22;;;-147.04;97.49
39075;BME280;24826;52.070;20.970;2023-03-04T02:04:50;61476.22;;;-147.04;98.34
39075;BME280;24826;52.070;20.970;2023-03-04T02:07:34;61476.22;;;-147.04;98.34
39075;BME280;24826;52.070;20.970;2023-03-04T02:10:19;61482.19;;;-147.04;98.42
39075;BME280;24826;52.070;20.970;2023-03-04T02:13:03;61462.28;;;-147.04;97.49
39075;BME280;24826;52.070;20.970;2023-03-04T02:15:48;61456.31;;;-147.04;97.16
39075;BME280;24826;52.070;20.970;2023-03-04T02:18:32;61488.13;;;-147.04;97.54
39075;BME280;24826;52.070;20.970;2023-03-04T02:21:26;61492.13;;;-147.04;97.77
39075;BME280;24826;52.070;20.970;2023-03-04T02:26:59;61486.16;;;-147.04;99.03
39075;BME280;24826;52.070;20.970;2023-03-04T02:29:43;61472.22;;;-147.04;99.20
39075;BME280;24826;52.070;20.970;2023-03-04T02:32:28;61480.19;;;-147.04;99.54
39075;BME280;24826;52.070;20.970;2023-03-04T02:35:16;61504.03;;;-147.04;100.00
39075;BME280;24826;52.070;20.970;2023-03-04T02:38:01;61500.06;;;-147.04;99.90
39075;BME280;24826;52.070;20.970;2023-03-04T02:40:47;61484.16;;;-147.04;99.77
39075;BME280;24826;52.070;20.970;2023-03-04T02:43:34;61470.25;;;-147.04;99.27
39075;BME280;24826;52.070;20.970;2023-03-04T02:46:18;61482.19;;;-147.04;99.45
39075;BME280;24826;52.070;20.970;2023-03-04T02:49:03;61506.03;;;-147.04;99.15
39075;BME280;24826;52.070;20.970;2023-03-04T02:51:51;61476.22;;;-147.04;99.11
39075;BME280;24826;52.070;20.970;2023-03-04T02:54:37;61488.13;;;-147.04;99.84
39075;BME280;24826;52.070;20.970;2023-03-04T02:57:21;61496.09;;;-147.04;99.75
39075;BME280;24826;52.070;20.970;2023-03-04T03:00:06;61452.34;;;-147.04;99.08
39075;BME280;24826;52.070;20.970;2023-03-04T03:02:51;61468.25;;;-147.04;99.03
39075;BME280;24826;52.070;20.970;2023-03-04T03:05:36;61502.06;;;-147.04;98.75
39075;BME280;24826;52.070;20.970;2023-03-04T03:08:20;61472.22;;;-147.04;99.47
39075;BME280;24826;52.070;20.970;2023-03-04T03:11:05;61492.13;;;-147.04;100.00
39075;BME280;24826;52.070;20.970;2023-03-04T03:13:49;61464.28;;;-147.04;100.00
39075;BME280;24826;52.070;20.970;2023-03-04T03:16:33;61478.19;;;-147.04;100.00
39075;BME280;24826;52.070;20.970;2023-03-04T03:19:17;61472.22;;;-147.04;100.00
39075;BME280;24826;52.070;20.970;2023-03-04T03:22:02;61462.28;;;-147.04;100.00
39075;BME280;24826;52.070;20.970;2023-03-04T03:24:46;61476.22;;;-147.04;100.00
39075;BME280;24826;52.070;20.970;2023-03-04T03:27:31;61464.28;;;-147.04;100.00
39075;BME280;24826;52.070;20.970;2023-03-04T03:30:15;61480.19;;;-147.04;100.00
39075;BME280;24826;52.070;20.970;2023-03-04T03:33:00;61472.22;;;-147.04;100.00
39075;BME280;24826;52.070;20.970;2023-03-04T03:35:44;61496.09;;;-147.04;100.00
39075;BME280;24826;52.070;20.970;2023-03-04T03:38:28;61476.22;;;-147.04;100.00
39075;BME280;24826;52.070;20.970;2023-03-04T03:41:12;61488.13;;;-147.04;99.67
39075;BME280;24826;52.070;20.970;2023-03-04T03:43:57;61480.19;;;-147.04;99.75
39075;BME280;24826;52.070;20.970;2023-03-04T03:46:41;61472.22;;;-147.04;99.48
39075;BME280;24826;52.070;20.970;2023-03-04T03:49:26;61450.34;;;-147.04;99.15
39075;BME280;24826;52.070;20.970;2023-03-04T03:52:10;61508.03;;;-147.04;99.20
39075;BME280;24826;52.070;20.970;2023-03-04T03:54:55;61476.22;;;-147.04;99.35
39075;BME280;24826;52.070;20.970;2023-03-04T03:57:40;61476.22;;;-147.04;98.58
39075;BME280;24826;52.070;20.970;2023-03-04T04:00:24;61468.25;;;-147.04;98.99
39075;BME280;24826;52.070;20.970;2023-03-04T04:03:11;61450.34;;;-147.04;98.51
39075;BME280;24826;52.070;20.970;2023-03-04T04:05:57;61430.47;;;-147.04;99.00
39075;BME280;24826;52.070;20.970;2023-03-04T04:08:41;61436.44;;;-147.04;98.59
39075;BME280;24826;52.070;20.970;2023-03-04T04:11:26;61490.13;;;-147.04;98.81
39075;BME280;24826;52.070;20.970;2023-03-04T04:14:12;61506.03;;;-147.04;99.14
39075;BME280;24826;52.070;20.970;2023-03-04T04:16:57;61474.22;;;-147.04;98.89
39075;BME280;24826;52.070;20.970;2023-03-04T04:19:41;61480.19;;;-147.04;99.07
39075;BME280;24826;52.070;20.970;2023-03-04T04:22:26;61502.06;;;-147.04;99.15
39075;BME280;24826;52.070;20.970;2023-03-04T04:25:10;61464.28;;;-147.04;99.28
39075;BME280;24826;52.070;20.970;2023-03-04T04:27:55;61472.22;;;-147.04;99.15
39075;BME280;24826;52.070;20.970;2023-03-04T04:30:39;61474.22;;;-147.04;99.68
39075;BME280;24826;52.070;20.970;2023-03-04T04:33:24;61472.22;;;-147.04;99.43
39075;BME280;24826;52.070;20.970;2023-03-04T04:36:12;61480.19;;;-147.04;99.84
39075;BME280;24826;52.070;20.970;2023-03-04T04:38:58;61430.47;;;-147.04;99.98
39075;BME280;24826;52.070;20.970;2023-03-04T04:41:43;61470.25;;;-147.04;99.29
39075;BME280;24826;52.070;20.970;2023-03-04T04:44:29;61452.34;;;-147.04;99.58
39075;BME280;24826;52.070;20.970;2023-03-04T04:47:13;61456.31;;;-147.04;99.32
39075;BME280;24826;52.070;20.970;2023-03-04T04:49:57;61468.25;;;-147.04;99.12
39075;BME280;24826;52.070;20.970;2023-03-04T04:52:42;61462.28;;;-147.04;99.50
39075;BME280;24826;52.070;20.970;2023-03-04T04:55:26;61462.28;;;-147.04;100.00
39075;BME280;24826;52.070;20.970;2023-03-04T04:58:11;61446.38;;;-147.04;100.00
39075;BME280;24826;52.070;20.970;2023-03-04T05:00:55;61460.31;;;-147.04;100.00
39075;BME280;24826;52.070;20.970;2023-03-04T05:03:41;61476.22;;;-147.04;100.00
39075;BME280;24826;52.070;20.970;2023-03-04T05:06:26;61442.41;;;-147.04;99.79
39075;BME280;24826;52.070;20.970;2023-03-04T05:09:11;61470.25;;;-147.04;99.57
39075;BME280;24826;52.070;20.970;2023-03-04T05:11:56;61500.06;;;-147.04;99.40
39075;BME280;24826;52.070;20.970;2023-03-04T05:14:40;61472.22;;;-147.04;100.00
39075;BME280;24826;52.070;20.970;2023-03-04T05:17:24;61506.03;;;-147.04;100.00
39075;BME280;24826;52.070;20.970;2023-03-04T05:20:09;61476.22;;;-147.04;100.00
39075;BME280;24826;52.070;20.970;2023-03-04T05:22:54;61476.22;;;-147.04;99.50
39075;BME280;24826;52.070;20.970;2023-03-04T05:25:38;61460.31;;;-147.04;100.00
39075;BME280;24826;52.070;20.970;2023-03-04T05:28:22;61458.31;;;-147.04;99.67
39075;BME280;24826;52.070;20.970;2023-03-04T05:31:07;61460.31;;;-147.04;99.94
39075;BME280;24826;52.070;20.970;2023-03-04T05:33:52;61490.13;;;-147.04;100.00
39075;BME280;24826;52.070;20.970;2023-03-04T05:36:36;61512.00;;;-147.04;100.00
39075;BME280;24826;52.070;20.970;2023-03-04T05:39:21;61448.38;;;-147.04;100.00
39075;BME280;24826;52.070;20.970;2023-03-04T05:42:05;61438.44;;;-147.04;100.00
39075;BME280;24826;52.070;20.970;2023-03-04T05:44:50;61440.41;;;-147.04;100.00
39075;BME280;24826;52.070;20.970;2023-03-04T05:47:34;61444.41;;;-147.04;100.00
39075;BME280;24826;52.070;20.970;2023-03-04T05:50:20;61462.28;;;-147.04;100.00
39075;BME280;24826;52.070;20.970;2023-03-04T05:53:05;61452.34;;;-147.04;99.59
39075;BME280;24826;52.070;20.970;2023-03-04T05:55:50;61472.22;;;-147.04;99.50
39075;BME280;24826;52.070;20.970;2023-03-04T05:58:35;61448.38;;;-147.04;99.60
39075;BME280;24826;52.070;20.970;2023-03-04T06:01:19;61454.34;;;-147.04;99.64
39075;BME280;24826;52.070;20.970;2023-03-04T06:04:03;61468.25;;;-147.04;100.00
39075;BME280;24826;52.070;20.970;2023-03-04T06:06:48;61444.41;;;-147.04;100.00
39075;BME280;24826;52.070;20.970;2023-03-04T06:09:32;61484.16;;;-147.04;99.95
39075;BME280;24826;52.070;20.970;2023-03-04T06:12:17;61454.34;;;-147.04;99.41
39075;BME280;24826;52.070;20.970;2023-03-04T06:15:01;61446.38;;;-147.04;99.67
39075;BME280;24826;52.070;20.970;2023-03-04T06:17:46;61444.41;;;-147.04;99.54
39075;BME280;24826;52.070;20.970;2023-03-04T06:20:30;61448.38;;;-147.04;99.17
39075;BME280;24826;52.070;20.970;2023-03-04T06:23:15;61468.25;;;-147.04;99.09
39075;BME280;24826;52.070;20.970;2023-03-04T06:26:00;61474.22;;;-147.04;98.77
39075;BME280;24826;52.070;20.970;2023-03-04T06:28:44;61456.31;;;-147.04;99.46
39075;BME280;24826;52.070;20.970;2023-03-04T06:31:29;61474.22;;;-147.04;99.71
39075;BME280;24826;52.070;20.970;2023-03-04T06:34:13;61472.22;;;-147.04;99.37
39075;BME280;24826;52.070;20.970;2023-03-04T06:36:58;61512.00;;;-147.04;99.31
39075;BME280;24826;52.070;20.970;2023-03-04T06:39:43;61492.13;;;-147.04;99.04
39075;BME280;24826;52.070;20.970;2023-03-04T06:42:28;61440.41;;;-147.04;99.64
39075;BME280;24826;52.070;20.970;2023-03-04T06:45:12;61472.22;;;-147.04;99.48
39075;BME280;24826;52.070;20.970;2023-03-04T06:47:56;61452.34;;;-147.04;98.79
39075;BME280;24826;52.070;20.970;2023-03-04T06:50:41;61476.22;;;-147.04;99.47
39075;BME280;24826;52.070;20.970;2023-03-04T06:53:25;61456.31;;;-147.04;99.35
39075;BME280;24826;52.070;20.970;2023-03-04T06:56:12;61456.31;;;-147.04;98.45
39075;BME280;24826;52.070;20.970;2023-03-04T06:58:58;61438.44;;;-147.04;99.42
39075;BME280;24826;52.070;20.970;2023-03-04T07:01:43;61460.31;;;-147.04;100.00
39075;BME280;24826;52.070;20.970;2023-03-04T07:04:27;61436.44;;;-147.04;99.45
39075;BME280;24826;52.070;20.970;2023-03-04T07:07:12;61458.31;;;-147.04;99.20
39075;BME280;24826;52.070;20.970;2023-03-04T07:09:56;61446.38;;;-147.04;99.31
39075;BME280;24826;52.070;20.970;2023-03-04T07:12:41;61450.34;;;-147.04;99.29
39075;BME280;24826;52.070;20.970;2023-03-04T07:15:25;61458.31;;;-147.04;99.13
39075;BME280;24826;52.070;20.970;2023-03-04T07:18:10;61490.13;;;-147.04;99.45
39075;BME280;24826;52.070;20.970;2023-03-04T07:20:54;61446.38;;;-147.04;99.19
39075;BME280;24826;52.070;20.970;2023-03-04T07:23:39;61480.19;;;-147.04;99.04
39075;BME280;24826;52.070;20.970;2023-03-04T07:26:23;61472.22;;;-147.04;99.57
39075;BME280;24826;52.070;20.970;2023-03-04T07:29:08;61466.25;;;-147.04;99.57
39075;BME280;24826;52.070;20.970;2023-03-04T07:31:52;61460.31;;;-147.04;98.81
39075;BME280;24826;52.070;20.970;2023-03-04T07:34:37;61450.34;;;-147.04;98.63
39075;BME280;24826;52.070;20.970;2023-03-04T07:37:21;61442.41;;;-147.04;98.55
39075;BME280;24826;52.070;20.970;2023-03-04T07:40:06;61478.19;;;-147.04;98.65
39075;BME280;24826;52.070;20.970;2023-03-04T07:42:53;61508.03;;;-147.04;98.76
39075;BME280;24826;52.070;20.970;2023-03-04T07:45:37;61508.03;;;-147.04;98.26
39075;BME280;24826;52.070;20.970;2023-03-04T07:48:21;61486.16;;;-147.04;97.57
39075;BME280;24826;52.070;20.970;2023-03-04T07:51:09;61476.22;;;-147.04;98.15
39075;BME280;24826;52.070;20.970;2023-03-04T07:53:57;61480.19;;;-147.04;97.54
39075;BME280;24826;52.070;20.970;2023-03-04T07:56:41;61476.22;;;-147.04;97.42
39075;BME280;24826;52.070;20.970;2023-03-04T07:59:26;61480.19;;;-147.04;96.44
39075;BME280;24826;52.070;20.970;2023-03-04T08:02:10;61460.31;;;-147.04;96.67
39075;BME280;24826;52.070;20.970;2023-03-04T08:04:54;61496.09;;;-147.04;96.27
39075;BME280;24826;52.070;20.970;2023-03-04T08:07:39;61484.16;;;-147.04;96.05
39075;BME280;24826;52.070;20.970;2023-03-04T08:10:23;61502.06;;;-147.04;95.84
39075;BME280;24826;52.070;20.970;2023-03-04T08:13:08;61458.31;;;-147.04;96.24
39075;BME280;24826;52.070;20.970;2023-03-04T08:15:54;61508.03;;;-147.04;95.58
39075;BME280;24826;52.070;20.970;2023-03-04T08:18:41;61496.09;;;-147.04;95.07
39075;BME280;24826;52.070;20.970;2023-03-04T08:21:26;61508.03;;;-147.04;95.62
39075;BME280;24826;52.070;20.970;2023-03-04T08:24:11;61639.25;;;-147.04;95.79
39075;BME280;24826;52.070;20.970;2023-03-04T08:26:55;61502.06;;;-147.04;96.02
39075;BME280;24826;52.070;20.970;2023-03-04T08:29:40;61531.88;;;-147.04;95.63
39075;BME280;24826;52.070;20.970;2023-03-04T08:32:25;61482.19;;;-147.04;95.80
39075;BME280;24826;52.070;20.970;2023-03-04T08:35:09;61502.06;;;-147.04;95.31
39075;BME280;24826;52.070;20.970;2023-03-04T08:37:53;61488.13;;;-147.04;95.75
39075;BME280;24826;52.070;20.970;2023-03-04T08:40:37;61494.09;;;-147.04;95.71
39075;BME280;24826;52.070;20.970;2023-03-04T08:43:23;61512.00;;;-147.04;95.58
39075;BME280;24826;52.070;20.970;2023-03-04T08:46:08;61482.19;;;-147.04;95.74
39075;BME280;24826;52.070;20.970;2023-03-04T08:48:52;61504.03;;;-147.04;95.23
39075;BME280;24826;52.070;20.970;2023-03-04T08:51:37;61512.00;;;-147.04;95.64
39075;BME280;24826;52.070;20.970;2023-03-04T08:54:21;61504.03;;;-147.04;95.76
39075;BME280;24826;52.070;20.970;2023-03-04T08:57:06;61492.13;;;-147.04;95.10
39075;BME280;24826;52.070;20.970;2023-03-04T08:59:50;61486.16;;;-147.04;95.18
39075;BME280;24826;52.070;20.970;2023-03-04T09:02:35;61500.06;;;-147.04;95.34
39075;BME280;24826;52.070;20.970;2023-03-04T09:05:19;61512.00;;;-147.04;95.62
39075;BME280;24826;52.070;20.970;2023-03-04T09:08:04;61476.22;;;-147.04;96.48
39075;BME280;24826;52.070;20.970;2023-03-04T09:10:51;61551.78;;;-147.04;96.57
39075;BME280;24826;52.070;20.970;2023-03-04T09:13:36;61502.06;;;-147.04;96.12
39075;BME280;24826;52.070;20.970;2023-03-04T09:16:21;61500.06;;;-147.04;96.15
39075;BME280;24826;52.070;20.970;2023-03-04T09:19:05;61486.16;;;-147.04;96.37
39075;BME280;24826;52.070;20.970;2023-03-04T09:21:49;61494.09;;;-147.04;96.27
39075;BME280;24826;52.070;20.970;2023-03-04T09:24:34;61519.94;;;-147.04;96.14
39075;BME280;24826;52.070;20.970;2023-03-04T09:27:18;61504.03;;;-147.04;96.67
39075;BME280;24826;52.070;20.970;2023-03-04T09:30:03;61500.06;;;-147.04;96.47
39075;BME280;24826;52.070;20.970;2023-03-04T09:32:47;61488.13;;;-147.04;96.27
39075;BME280;24826;52.070;20.970;2023-03-04T09:35:32;61514.00;;;-147.04;97.00
39075;BME280;24826;52.070;20.970;2023-03-04T09:38:16;61488.13;;;-147.04;96.71
39075;BME280;24826;52.070;20.970;2023-03-04T09:41:05;61504.03;;;-147.04;96.01
39075;BME280;24826;52.070;20.970;2023-03-04T09:43:52;61519.94;;;-147.04;96.44
39075;BME280;24826;52.070;20.970;2023-03-04T09:46:38;61510.00;;;-147.04;96.30
39075;BME280;24826;52.070;20.970;2023-03-04T09:49:25;61514.00;;;-147.04;96.36
39075;BME280;24826;52.070;20.970;2023-03-04T09:52:27;61523.94;;;-147.04;95.87
39075;BME280;24826;52.070;20.970;2023-03-04T09:55:22;61515.97;;;-147.04;95.87
39075;BME280;24826;52.070;20.970;2023-03-04T09:58:41;61506.03;;;-147.04;96.31
39075;BME280;24826;52.070;20.970;2023-03-04T10:01:32;61529.91;;;-147.04;96.24
39075;BME280;24826;52.070;20.970;2023-03-04T10:04:26;61527.91;;;-147.04;95.37
39075;BME280;24826;52.070;20.970;2023-03-04T10:07:23;61506.03;;;-147.04;95.39
39075;BME280;24826;52.070;20.970;2023-03-04T10:10:16;61523.94;;;-147.04;95.45
39075;BME280;24826;52.070;20.970;2023-03-04T10:13:02;61539.84;;;-147.04;94.78
39075;BME280;24826;52.070;20.970;2023-03-04T10:15:48;61541.81;;;-147.04;94.98
39075;BME280;24826;52.070;20.970;2023-03-04T10:18:41;61519.94;;;-147.04;94.64
39075;BME280;24826;52.070;20.970;2023-03-04T10:21:37;61659.16;;;-147.04;94.39
39075;BME280;24826;52.070;20.970;2023-03-04T10:24:28;61519.94;;;-147.04;94.22
39075;BME280;24826;52.070;20.970;2023-03-04T10:27:17;61512.00;;;-147.04;94.06
39075;BME280;24826;52.070;20.970;2023-03-04T10:30:02;61492.13;;;-147.04;94.11
39075;BME280;24826;52.070;20.970;2023-03-04T10:32:47;61456.31;;;-147.04;94.11
39075;BME280;24826;52.070;20.970;2023-03-04T10:35:35;61476.22;;;-147.04;94.29
39075;BME280;24826;52.070;20.970;2023-03-04T10:38:21;61454.34;;;-147.04;94.49
39075;BME280;24826;52.070;20.970;2023-03-04T10:41:14;61486.16;;;-147.04;94.56
39075;BME280;24826;52.070;20.970;2023-03-04T10:46:54;61519.94;;;-147.04;94.29
39075;BME280;24826;52.070;20.970;2023-03-04T10:49:53;61512.00;;;-147.04;94.71
39075;BME280;24826;52.070;20.970;2023-03-04T10:52:40;61512.00;;;-147.04;94.58
39075;BME280;24826;52.070;20.970;2023-03-04T10:55:41;61484.16;;;-147.04;93.99
39075;BME280;24826;52.070;20.970;2023-03-04T10:58:26;61504.03;;;-147.04;93.96
39075;BME280;24826;52.070;20.970;2023-03-04T11:01:14;61472.22;;;-147.04;94.44
39075;BME280;24826;52.070;20.970;2023-03-04T11:03:59;61512.00;;;-147.04;94.74
39075;BME280;24826;52.070;20.970;2023-03-04T11:06:43;61482.19;;;-147.04;94.59
39075;BME280;24826;52.070;20.970;2023-03-04T11:09:29;61500.06;;;-147.04;94.37
39075;BME280;24826;52.070;20.970;2023-03-04T11:12:16;61484.16;;;-147.04;94.60
39075;BME280;24826;52.070;20.970;2023-03-04T11:15:03;61488.13;;;-147.04;94.16
39075;BME280;24826;52.070;20.970;2023-03-04T11:17:51;61480.19;;;-147.04;94.07
39075;BME280;24826;52.070;20.970;2023-03-04T11:20:40;61490.13;;;-147.04;94.64
39075;BME280;24826;52.070;20.970;2023-03-04T11:29:51;61484.16;;;-147.04;95.52
39075;BME280;24826;52.070;20.970;2023-03-04T11:32:40;61464.28;;;-147.04;95.64
39075;BME280;24826;52.070;20.970;2023-03-04T11:35:31;61504.03;;;-147.04;96.36
39075;BME280;24826;52.070;20.970;2023-03-04T11:38:19;61492.13;;;-147.04;96.51
39075;BME280;24826;52.070;20.970;2023-03-04T11:41:18;61478.19;;;-147.04;96.22
39075;BME280;24826;52.070;20.970;2023-03-04T11:44:06;61611.44;;;-147.04;96.42
39075;BME280;24826;52.070;20.970;2023-03-04T11:50:02;61480.19;;;-147.04;96.52
39075;BME280;24826;52.070;20.970;2023-03-04T12:01:58;61482.19;;;-147.04;97.20
39075;BME280;24826;52.070;20.970;2023-03-04T12:08:22;61464.28;;;-147.04;100.00
39075;BME280;24826;52.070;20.970;2023-03-04T12:11:33;61452.34;;;-147.04;100.00
39075;BME280;24826;52.070;20.970;2023-03-04T12:14:30;61631.31;;;-147.04;100.00
39075;BME280;24826;52.070;20.970;2023-03-04T12:20:52;61496.09;;;-147.04;100.00
39075;BME280;24826;52.070;20.970;2023-03-04T12:32:46;61424.50;;;-147.04;100.00
39075;BME280;24826;52.070;20.970;2023-03-04T12:45:02;61408.59;;;-147.04;100.00
39075;BME280;24826;52.070;20.970;2023-03-04T12:48:15;61426.50;;;-147.04;100.00
39075;BME280;24826;52.070;20.970;2023-03-04T12:51:17;61456.31;;;-147.04;100.00
39075;BME280;24826;52.070;20.970;2023-03-04T12:56:57;61442.41;;;-147.04;100.00
39075;BME280;24826;52.070;20.970;2023-03-04T12:59:49;61442.41;;;-147.04;100.00
39075;BME280;24826;52.070;20.970;2023-03-04T13:05:36;61420.53;;;-147.04;100.00
39075;BME280;24826;52.070;20.970;2023-03-04T13:08:52;61476.22;;;-147.04;100.00
39075;BME280;24826;52.070;20.970;2023-03-04T13:11:42;61496.09;;;-147.04;100.00
39075;BME280;24826;52.070;20.970;2023-03-04T13:14:28;61514.00;;;-147.04;100.00
39075;BME280;24826;52.070;20.970;2023-03-04T13:17:41;61539.84;;;-147.04;100.00
39075;BME280;24826;52.070;20.970;2023-03-04T13:20:33;61472.22;;;-147.04;100.00
39075;BME280;24826;52.070;20.970;2023-03-04T13:23:22;61508.03;;;-147.04;100.00
39075;BME280;24826;52.070;20.970;2023-03-04T13:26:22;61508.03;;;-147.04;100.00
39075;BME280;24826;52.070;20.970;2023-03-04T13:32:02;61515.97;;;-147.04;100.00
39075;BME280;24826;52.070;20.970;2023-03-04T13:34:51;61496.09;;;-147.04;100.00
39075;BME280;24826;52.070;20.970;2023-03-04T13:37:56;61500.06;;;-147.04;100.00
39075;BME280;24826;52.070;20.970;2023-03-04T13:40:41;61527.91;;;-147.04;100.00
39075;BME280;24826;52.070;20.970;2023-03-04T13:43:32;61506.03;;;-147.04;100.00
39075;BME280;24826;52.070;20.970;2023-03-04T13:49:15;61506.03;;;-147.04;100.00
39075;BME280;24826;52.070;20.970;2023-03-04T13:52:41;61484.16;;;-147.04;100.00
39075;BME280;24826;52.070;20.970;2023-03-04T13:55:39;61464.28;;;-147.04;100.00
39075;BME280;24826;52.070;20.970;2023-03-04T13:58:26;61494.09;;;-147.04;100.00
39075;BME280;24826;52.070;20.970;2023-03-04T14:01:26;61486.16;;;-147.04;100.00
39075;BME280;24826;52.070;20.970;2023-03-04T14:04:22;61484.16;;;-147.04;100.00
39075;BME280;24826;52.070;20.970;2023-03-04T14:07:18;61462.28;;;-147.04;99.74
39075;BME280;24826;52.070;20.970;2023-03-04T14:10:19;61559.72;;;-147.04;100.00
39075;BME280;24826;52.070;20.970;2023-03-04T14:13:07;61452.34;;;-147.04;99.91
39075;BME280;24826;52.070;20.970;2023-03-04T14:15:56;61490.13;;;-147.04;100.00
39075;BME280;24826;52.070;20.970;2023-03-04T14:18:41;61480.19;;;-147.04;100.00
39075;BME280;24826;52.070;20.970;2023-03-04T14:21:25;61468.25;;;-147.04;100.00
39075;BME280;24826;52.070;20.970;2023-03-04T14:24:13;61480.19;;;-147.04;100.00
39075;BME280;24826;52.070;20.970;2023-03-04T14:27:10;61480.19;;;-147.04;100.00
39075;BME280;24826;52.070;20.970;2023-03-04T14:29:56;61515.97;;;-147.04;100.00
39075;BME280;24826;52.070;20.970;2023-03-04T14:32:41;61482.19;;;-147.04;100.00
39075;BME280;24826;52.070;20.970;2023-03-04T14:35:30;61500.06;;;-147.04;100.00
39075;BME280;24826;52.070;20.970;2023-03-04T14:41:18;61496.09;;;-147.04;100.00
39075;BME280;24826;52.070;20.970;2023-03-04T14:44:10;61480.19;;;-147.04;100.00
39075;BME280;24826;52.070;20.970;2023-03-04T14:47:05;61480.19;;;-147.04;100.00
39075;BME280;24826;52.070;20.970;2023-03-04T14:49:51;61551.78;;;-147.04;100.00
39075;BME280;24826;52.070;20.970;2023-03-04T14:52:39;61476.22;;;-147.04;100.00
39075;BME280;24826;52.070;20.970;2023-03-04T14:55:26;61424.50;;;-147.04;100.00
39075;BME280;24826;52.070;20.970;2023-03-04T14:58:21;61418.53;;;-147.04;100.00
39075;BME280;24826;52.070;20.970;2023-03-04T15:01:19;61466.25;;;-147.04;100.00
39075;BME280;24826;52.070;20.970;2023-03-04T15:04:08;61436.44;;;-147.04;100.00
39075;BME280;24826;52.070;20.970;2023-03-04T15:06:54;61458.31;;;-147.04;100.00
39075;BME280;24826;52.070;20.970;2023-03-04T15:09:39;61450.34;;;-147.04;100.00
39075;BME280;24826;52.070;20.970;2023-03-04T15:12:30;61424.50;;;-147.04;100.00